Time;durP1;ratioP1;P1;durP2;ratioP2;P2;SDS_P1;SDS_P2;PMS_P1;PMS_P2;Temp;Humidity;BMP_temperature;BMP_pressure;BME280_temperature;BME280_humidity;BME280_pressure;Samples;Min_cycle;Max_cycle;Signal;HPM_P1;HPM_P2
2022/07/05 00:03:09;;;;;;;1.95;1.70;;;;;;;;;;4974037;28;20046;-83
2022/07/05 00:05:36;;;;;;;2.78;1.95;;;;;;;;;;4962200;28;20069;-82
2022/07/05 00:08:25;;;;;;;5.25;1.90;;;;;;;;;;4976697;28;20027;-82
2022/07/05 00:10:51;;;;;;;4.47;1.67;;;;;;;;;;4975283;28;20054;-82
2022/07/05 00:13:16;;;;;;;2.78;1.70;;;;;;;;;;4977094;28;20110;-82
2022/07/05 00:15:41;;;;;;;2.38;1.60;;;;;;;;;;4975607;28;20417;-81
2022/07/05 00:18:07;;;;;;;2.83;1.90;;;;;;;;;;4974552;28;20030;-82
2022/07/05 00:20:33;;;;;;;1.77;1.67;;;;;;;;;;4975027;28;20030;-82
2022/07/05 00:22:58;;;;;;;2.42;1.88;;;;;;;;;;4977110;28;20027;-81
2022/07/05 00:25:24;;;;;;;2.00;1.80;;;;;;;;;;4976090;28;20401;-82
2022/07/05 00:27:49;;;;;;;4.45;1.88;;;;;;;;;;4975662;28;20031;-81
2022/07/05 00:30:15;;;;;;;2.58;2.15;;;;;;;;;;4978877;28;20102;-82
2022/07/05 00:32:40;;;;;;;1.80;1.50;;;;;;;;;;4976694;28;20033;-81
2022/07/05 00:35:06;;;;;;;5.00;1.85;;;;;;;;;;4985022;28;20027;-81
2022/07/05 00:37:31;;;;;;;7.55;1.90;;;;;;;;;;4967413;28;20478;-82
2022/07/05 00:39:57;;;;;;;2.65;1.83;;;;;;;;;;4980254;28;20023;-82
2022/07/05 00:42:22;;;;;;;3.42;2.05;;;;;;;;;;4978034;28;20039;-82
2022/07/05 00:44:48;;;;;;;2.13;1.80;;;;;;;;;;4980873;28;20019;-81
2022/07/05 00:47:13;;;;;;;2.28;1.70;;;;;;;;;;4975465;28;20031;-82
2022/07/05 00:49:41;;;;;;;3.75;2.00;;;;;;;;;;4985292;28;20083;-79
2022/07/05 00:52:07;;;;;;;3.10;2.00;;;;;;;;;;4987434;28;20023;-81
2022/07/05 00:54:35;;;;;;;4.90;1.85;;;;;;;;;;4979806;28;20473;-82
2022/07/05 00:57:01;;;;;;;1.60;1.50;;;;;;;;;;4971597;28;20150;-82
2022/07/05 00:59:27;;;;;;;2.28;1.77;;;;;;;;;;4976755;28;20019;-81
2022/07/05 01:01:53;;;;;;;1.98;1.73;;;;;;;;;;4979409;28;20085;-82
2022/07/05 01:04:19;;;;;;;2.92;1.80;;;;;;;;;;4978202;28;20027;-81
2022/07/05 01:06:47;;;;;;;3.33;2.13;;;;;;;;;;4977422;28;20055;-81
2022/07/05 01:09:13;;;;;;;4.18;1.85;;;;;;;;;;4974398;28;20560;-84
2022/07/05 01:11:40;;;;;;;3.10;1.92;;;;;;;;;;4978388;28;20118;-81
2022/07/05 01:14:10;;;;;;;2.72;1.67;;;;;;;;;;4978038;28;20025;-81
2022/07/05 01:16:38;;;;;;;5.28;1.80;;;;;;;;;;4977509;28;20049;-81
2022/07/05 01:19:05;;;;;;;2.35;2.13;;;;;;;;;;4977667;28;20061;-83
2022/07/05 01:21:32;;;;;;;5.88;2.08;;;;;;;;;;4979080;28;20027;-83
2022/07/05 01:23:57;;;;;;;3.78;1.70;;;;;;;;;;4990126;23;20039;-81
2022/07/05 01:26:23;;;;;;;4.20;1.70;;;;;;;;;;4975477;28;20038;-80
2022/07/05 01:28:48;;;;;;;5.20;1.63;;;;;;;;;;4976336;28;20033;-80
2022/07/05 01:31:14;;;;;;;3.42;1.95;;;;;;;;;;4976321;28;20046;-81
2022/07/05 01:33:39;;;;;;;3.05;2.17;;;;;;;;;;4984698;28;20027;-81
2022/07/05 01:36:05;;;;;;;3.15;1.70;;;;;;;;;;4994566;28;20101;-81
2022/07/05 01:38:30;;;;;;;1.85;1.75;;;;;;;;;;4991575;28;20062;-79
2022/07/05 01:40:56;;;;;;;5.35;1.88;;;;;;;;;;4981773;28;20034;-80
2022/07/05 01:43:23;;;;;;;2.78;1.90;;;;;;;;;;4967466;28;20034;-82
2022/07/05 01:45:49;;;;;;;3.92;1.95;;;;;;;;;;4982798;28;20046;-81
2022/07/05 01:48:19;;;;;;;1.90;1.73;;;;;;;;;;4982156;28;20022;-81
2022/07/05 01:50:59;;;;;;;2.88;2.00;;;;;;;;;;4991700;28;20037;-82
2022/07/05 01:53:28;;;;;;;2.10;1.90;;;;;;;;;;4984396;28;20071;-82
2022/07/05 01:55:56;;;;;;;3.55;1.95;;;;;;;;;;4994891;28;20081;-82
2022/07/05 01:58:22;;;;;;;4.90;2.20;;;;;;;;;;4995217;28;20030;-82
2022/07/05 02:00:50;;;;;;;3.15;2.00;;;;;;;;;;4975257;28;20022;-81
2022/07/05 02:03:16;;;;;;;2.97;2.00;;;;;;;;;;4975601;28;20085;-81
2022/07/05 02:05:43;;;;;;;1.95;1.83;;;;;;;;;;4966046;28;20038;-82
2022/07/05 02:08:09;;;;;;;4.55;2.00;;;;;;;;;;4957670;29;20469;-82
2022/07/05 02:10:35;;;;;;;3.42;2.00;;;;;;;;;;4980031;28;20058;-81
2022/07/05 02:13:02;;;;;;;3.28;2.40;;;;;;;;;;4978298;28;20026;-81
2022/07/05 02:15:30;;;;;;;2.78;2.10;;;;;;;;;;4979326;28;20019;-80
2022/07/05 02:17:55;;;;;;;2.08;1.98;;;;;;;;;;4978867;28;20174;-80
2022/07/05 02:20:20;;;;;;;3.05;1.90;;;;;;;;;;4991276;28;20081;-81
2022/07/05 02:22:46;;;;;;;2.88;2.10;;;;;;;;;;4999512;28;20061;-80
2022/07/05 02:25:11;;;;;;;3.33;1.92;;;;;;;;;;4987437;28;20027;-82
2022/07/05 02:27:37;;;;;;;2.20;2.00;;;;;;;;;;4979718;28;20114;-81
2022/07/05 02:30:02;;;;;;;4.13;1.90;;;;;;;;;;4988649;28;20035;-83
2022/07/05 02:32:28;;;;;;;1.73;1.63;;;;;;;;;;4979360;28;20054;-80
2022/07/05 02:34:53;;;;;;;4.50;1.90;;;;;;;;;;4988246;28;20022;-80
2022/07/05 02:37:18;;;;;;;2.55;2.00;;;;;;;;;;4991746;28;20037;-80
2022/07/05 02:39:44;;;;;;;3.50;2.05;;;;;;;;;;4993070;28;20030;-81
2022/07/05 02:42:09;;;;;;;4.78;2.40;;;;;;;;;;4994330;28;20030;-80
2022/07/05 02:44:35;;;;;;;2.47;1.98;;;;;;;;;;4987038;28;20027;-80
2022/07/05 02:47:00;;;;;;;5.05;1.90;;;;;;;;;;4995586;28;20029;-79
2022/07/05 02:49:25;;;;;;;2.85;2.30;;;;;;;;;;4997215;28;20026;-79
2022/07/05 02:51:51;;;;;;;2.00;1.80;;;;;;;;;;4997286;28;20039;-80
2022/07/05 02:54:16;;;;;;;3.55;2.50;;;;;;;;;;4997435;28;20084;-79
2022/07/05 02:56:41;;;;;;;2.72;1.90;;;;;;;;;;4997424;28;20112;-80
2022/07/05 02:59:07;;;;;;;1.98;1.70;;;;;;;;;;4997385;28;20480;-80
2022/07/05 03:01:32;;;;;;;5.97;1.98;;;;;;;;;;4981189;28;20031;-80
2022/07/05 03:03:59;;;;;;;3.33;1.88;;;;;;;;;;4970469;28;20477;-80
2022/07/05 03:06:24;;;;;;;3.10;2.05;;;;;;;;;;4978894;28;20101;-79
2022/07/05 03:08:49;;;;;;;5.75;2.30;;;;;;;;;;4977266;28;20077;-80
2022/07/05 03:11:15;;;;;;;4.80;2.47;;;;;;;;;;4967674;28;20031;-81
2022/07/05 03:13:40;;;;;;;2.45;2.00;;;;;;;;;;4975042;28;20030;-79
2022/07/05 03:16:06;;;;;;;2.78;2.15;;;;;;;;;;4976827;28;20082;-80
2022/07/05 03:18:31;;;;;;;1.77;1.63;;;;;;;;;;4975209;28;20023;-80
2022/07/05 03:20:56;;;;;;;3.45;1.88;;;;;;;;;;4976836;28;20061;-80
2022/07/05 03:23:22;;;;;;;2.47;1.77;;;;;;;;;;4977013;28;20400;-81
2022/07/05 03:25:47;;;;;;;2.08;1.88;;;;;;;;;;4977826;28;20382;-80
2022/07/05 03:28:12;;;;;;;3.40;2.20;;;;;;;;;;4977479;28;20341;-81
2022/07/05 03:30:38;;;;;;;8.02;2.40;;;;;;;;;;4977300;28;20035;-80
2022/07/05 03:33:03;;;;;;;4.85;1.98;;;;;;;;;;4971995;28;20023;-81
2022/07/05 03:35:29;;;;;;;3.45;1.90;;;;;;;;;;4984839;28;20027;-80
2022/07/05 03:37:54;;;;;;;5.90;1.80;;;;;;;;;;4977319;28;20023;-80
2022/07/05 03:40:19;;;;;;;2.50;1.95;;;;;;;;;;4987370;28;20029;-80
2022/07/05 03:42:45;;;;;;;1.92;1.65;;;;;;;;;;4995448;28;20030;-81
2022/07/05 03:45:10;;;;;;;3.85;1.98;;;;;;;;;;4997043;28;20461;-82
2022/07/05 03:47:36;;;;;;;2.00;1.80;;;;;;;;;;4996355;28;20030;-81
2022/07/05 03:50:03;;;;;;;3.10;2.13;;;;;;;;;;4996189;28;20049;-80
2022/07/05 03:52:28;;;;;;;2.05;1.80;;;;;;;;;;4996614;28;20430;-81
2022/07/05 03:54:53;;;;;;;5.35;2.10;;;;;;;;;;4996519;28;20019;-81
2022/07/05 03:57:19;;;;;;;8.35;2.15;;;;;;;;;;4995747;28;20025;-81
2022/07/05 03:59:45;;;;;;;6.05;2.10;;;;;;;;;;4994447;28;20396;-80
2022/07/05 04:02:11;;;;;;;5.43;2.08;;;;;;;;;;4987241;28;20025;-80
2022/07/05 04:04:36;;;;;;;3.28;2.15;;;;;;;;;;4980274;28;20022;-80
2022/07/05 04:07:01;;;;;;;4.03;2.75;;;;;;;;;;4979483;28;20195;-80
2022/07/05 04:09:27;;;;;;;4.88;2.67;;;;;;;;;;4977927;28;20038;-80
2022/07/05 04:11:53;;;;;;;2.30;2.10;;;;;;;;;;4975481;28;20061;-80
2022/07/05 04:14:18;;;;;;;3.40;1.80;;;;;;;;;;4975283;28;20066;-81
2022/07/05 04:16:43;;;;;;;3.58;2.10;;;;;;;;;;4975692;28;20126;-81
2022/07/05 04:19:09;;;;;;;2.35;1.92;;;;;;;;;;4974387;28;20034;-81
2022/07/05 04:21:34;;;;;;;2.67;1.70;;;;;;;;;;4976793;28;20078;-81
2022/07/05 04:24:00;;;;;;;2.70;1.63;;;;;;;;;;4975876;28;20058;-81
2022/07/05 04:26:25;;;;;;;2.63;2.13;;;;;;;;;;4976022;28;20082;-80
2022/07/05 04:28:50;;;;;;;4.60;2.08;;;;;;;;;;4974825;28;20027;-80
2022/07/05 04:31:16;;;;;;;5.63;1.70;;;;;;;;;;4975831;28;20456;-80
2022/07/05 04:33:41;;;;;;;1.83;1.70;;;;;;;;;;4976283;28;20031;-81
2022/07/05 04:36:07;;;;;;;3.83;1.85;;;;;;;;;;4976043;28;20023;-80
2022/07/05 04:38:32;;;;;;;3.15;2.00;;;;;;;;;;4975851;28;20042;-80
2022/07/05 04:40:57;;;;;;;2.00;1.85;;;;;;;;;;4977518;28;20067;-82
2022/07/05 04:43:23;;;;;;;1.92;1.70;;;;;;;;;;4976256;28;20023;-81
2022/07/05 04:45:48;;;;;;;1.77;1.50;;;;;;;;;;4976355;28;20023;-79
2022/07/05 04:48:13;;;;;;;1.75;1.65;;;;;;;;;;4982674;28;20027;-80
2022/07/05 04:50:39;;;;;;;4.63;2.22;;;;;;;;;;4990126;28;20030;-80
2022/07/05 04:53:04;;;;;;;3.22;1.92;;;;;;;;;;4990102;28;20061;-81
2022/07/05 04:55:30;;;;;;;7.53;2.03;;;;;;;;;;5002946;28;20054;-80
2022/07/05 04:57:55;;;;;;;5.32;2.00;;;;;;;;;;5010435;28;20018;-79
2022/07/05 05:00:20;;;;;;;8.18;2.00;;;;;;;;;;5010093;28;20057;-79
2022/07/05 05:02:46;;;;;;;3.53;1.80;;;;;;;;;;5009527;28;20019;-80
2022/07/05 05:05:11;;;;;;;3.10;1.70;;;;;;;;;;5009451;28;20026;-81
2022/07/05 05:07:41;;;;;;;3.17;1.70;;;;;;;;;;4990448;28;20085;-81
2022/07/05 05:10:07;;;;;;;2.10;1.15;;;;;;;;;;4998282;28;20018;-80
2022/07/05 05:12:33;;;;;;;4.97;1.60;;;;;;;;;;4995706;28;20030;-81
2022/07/05 05:14:58;;;;;;;1.92;1.55;;;;;;;;;;4995495;28;20081;-81
2022/07/05 05:17:24;;;;;;;5.10;1.60;;;;;;;;;;4986936;28;20042;-81
2022/07/05 05:19:49;;;;;;;3.60;1.45;;;;;;;;;;4982387;28;20022;-81
2022/07/05 05:22:14;;;;;;;1.60;1.50;;;;;;;;;;4976692;28;20110;-81
2022/07/05 05:24:40;;;;;;;3.08;1.60;;;;;;;;;;4976180;28;20516;-80
2022/07/05 05:27:05;;;;;;;1.38;1.27;;;;;;;;;;4977602;28;20404;-81
2022/07/05 05:29:30;;;;;;;2.63;1.45;;;;;;;;;;4982297;28;20030;-81
2022/07/05 05:31:56;;;;;;;4.25;1.50;;;;;;;;;;4989278;28;20038;-85
2022/07/05 05:34:21;;;;;;;1.45;1.35;;;;;;;;;;4977812;28;20103;-83
2022/07/05 05:36:47;;;;;;;1.50;1.40;;;;;;;;;;4975464;28;20030;-81
2022/07/05 05:39:12;;;;;;;3.60;1.58;;;;;;;;;;4978524;28;20034;-82
2022/07/05 05:41:38;;;;;;;1.20;1.10;;;;;;;;;;4977921;28;20023;-81
2022/07/05 05:44:04;;;;;;;1.23;1.10;;;;;;;;;;4980390;28;20477;-82
2022/07/05 05:46:29;;;;;;;0.95;0.95;;;;;;;;;;4980454;28;20066;-82
2022/07/05 05:48:54;;;;;;;1.95;1.40;;;;;;;;;;4978272;28;20038;-83
2022/07/05 05:51:20;;;;;;;3.90;1.27;;;;;;;;;;4992538;28;20030;-82
2022/07/05 05:53:45;;;;;;;1.15;1.10;;;;;;;;;;4981895;28;20052;-81
2022/07/05 05:56:12;;;;;;;4.82;1.20;;;;;;;;;;4980922;28;20053;-82
2022/07/05 05:58:37;;;;;;;2.00;0.95;;;;;;;;;;4979073;28;20477;-81
2022/07/05 06:01:02;;;;;;;1.27;1.08;;;;;;;;;;4980199;28;20038;-83
2022/07/05 06:03:28;;;;;;;9.65;1.35;;;;;;;;;;4979647;28;20019;-82
2022/07/05 06:05:54;;;;;;;3.03;1.15;;;;;;;;;;4981775;28;20038;-81
2022/07/05 06:08:19;;;;;;;4.93;1.20;;;;;;;;;;4974741;28;20069;-81
2022/07/05 06:10:45;;;;;;;1.70;1.10;;;;;;;;;;4980255;28;20418;-82
2022/07/05 06:13:23;;;;;;;1.30;1.20;;;;;;;;;;4978721;28;20042;-86
2022/07/05 06:15:48;;;;;;;2.92;1.15;;;;;;;;;;4974757;28;20113;-83
2022/07/05 06:18:13;;;;;;;0.88;0.88;;;;;;;;;;4974637;28;20490;-82
2022/07/05 06:20:39;;;;;;;3.83;1.23;;;;;;;;;;4976314;28;20033;-82
2022/07/05 06:23:05;;;;;;;2.05;1.10;;;;;;;;;;4989734;28;20042;-84
2022/07/05 06:25:32;;;;;;;1.05;0.95;;;;;;;;;;4996356;28;20484;-84
2022/07/05 06:28:04;;;;;;;1.40;1.10;;;;;;;;;;4981337;28;20481;-81
2022/07/05 06:30:31;;;;;;;1.23;1.13;;;;;;;;;;4976474;28;20034;-84
2022/07/05 06:32:56;;;;;;;3.22;1.17;;;;;;;;;;4971249;28;20462;-82
2022/07/05 06:35:23;;;;;;;1.92;0.93;;;;;;;;;;4979282;28;20053;-82
2022/07/05 06:38:00;;;;;;;1.88;1.08;;;;;;;;;;4980887;28;20050;-82
2022/07/05 06:40:26;;;;;;;2.53;1.30;;;;;;;;;;4992212;28;20032;-86
2022/07/05 06:42:53;;;;;;;1.33;1.10;;;;;;;;;;5003241;28;20023;-87
2022/07/05 06:45:19;;;;;;;2.70;1.10;;;;;;;;;;4980219;28;20022;-87
2022/07/05 06:47:55;;;;;;;2.70;1.25;;;;;;;;;;4982301;28;20109;-87
2022/07/05 06:50:21;;;;;;;3.75;1.20;;;;;;;;;;4982459;28;20121;-88
2022/07/05 06:52:53;;;;;;;1.95;1.00;;;;;;;;;;4975558;28;20062;-87
2022/07/05 06:55:22;;;;;;;0.80;0.80;;;;;;;;;;4998027;28;20039;-87
2022/07/05 06:57:48;;;;;;;1.83;1.20;;;;;;;;;;4981738;28;20054;-87
2022/07/05 07:00:15;;;;;;;2.72;1.13;;;;;;;;;;4972554;28;20489;-87
2022/07/05 07:02:49;;;;;;;1.20;1.05;;;;;;;;;;4978926;28;20027;-87
2022/07/05 07:05:16;;;;;;;1.02;0.90;;;;;;;;;;4973528;28;20026;-88
2022/07/05 07:10:45;;;;;;;2.22;0.90;;;;;;;;;;4981465;28;20045;-83
2022/07/05 07:30:29;;;;;;;2.28;1.20;;;;;;;;;;4836354;29;20162;-84
2022/07/05 07:36:52;;;;;;;;;;;;;;;;;;;;;
2022/07/05 08:29:17;;;;;;;1.75;1.10;;;;;;;;;;4978281;28;20058;-84
2022/07/05 08:31:43;;;;;;;2.25;1.13;;;;;;;;;;4970315;28;20039;-84
2022/07/05 08:34:12;;;;;;;1.98;1.13;;;;;;;;;;4969351;28;20393;-85
2022/07/05 08:36:42;;;;;;;1.67;0.90;;;;;;;;;;4964946;28;20082;-84
2022/07/05 08:39:08;;;;;;;2.60;0.90;;;;;;;;;;4967463;28;20034;-84
2022/07/05 08:41:41;;;;;;;1.75;0.90;;;;;;;;;;4968640;28;20089;-84
2022/07/05 08:44:12;;;;;;;2.25;1.10;;;;;;;;;;4969348;28;20026;-85
2022/07/05 08:47:38;;;;;;;2.90;1.05;;;;;;;;;;4966146;28;20070;-84
2022/07/05 08:50:05;;;;;;;2.20;1.00;;;;;;;;;;4964536;28;20110;-84
2022/07/05 08:52:56;;;;;;;6.70;1.38;;;;;;;;;;4989720;28;20398;-84
2022/07/05 08:55:28;;;;;;;4.43;1.33;;;;;;;;;;4961461;28;20047;-84
2022/07/05 08:58:29;;;;;;;2.17;1.10;;;;;;;;;;4969853;28;20076;-84
2022/07/05 09:02:03;;;;;;;5.45;1.20;;;;;;;;;;4897110;29;20041;-84
2022/07/05 09:24:15;;;;;;;1.83;0.90;;;;;;;;;;4983185;28;20069;-84
2022/07/05 09:50:30;;;;;;;1.10;0.88;;;;;;;;;;4761445;29;20379;-84
2022/07/05 09:53:08;;;;;;;1.48;0.93;;;;;;;;;;4738664;30;20173;-84
2022/07/05 09:56:02;;;;;;;2.00;1.00;;;;;;;;;;4843516;29;20086;-84
2022/07/05 10:01:37;;;;;;;1.85;0.63;;;;;;;;;;5029726;23;20049;-84
2022/07/05 10:04:12;;;;;;;1.27;0.60;;;;;;;;;;4973622;28;20489;-84
2022/07/05 10:06:49;;;;;;;1.52;0.90;;;;;;;;;;4983358;28;20172;-84
2022/07/05 10:10:23;;;;;;;;;;;;;;;;;;;;;
2022/07/05 10:23:17;;;;;;;2.65;0.95;;;;;;;;;;4899564;29;20047;-83
2022/07/05 10:25:52;;;;;;;1.40;1.02;;;;;;;;;;4899298;29;20040;-83
2022/07/05 10:28:57;;;;;;;3.70;0.90;;;;;;;;;;4889010;29;20059;-83
2022/07/05 10:34:52;;;;;;;1.05;0.60;;;;;;;;;;4982451;28;20061;-86
2022/07/05 10:40:53;;;;;;;4.63;0.88;;;;;;;;;;4997903;28;20125;-85
2022/07/05 10:43:59;;;;;;;0.60;0.50;;;;;;;;;;4980150;28;20081;-83
2022/07/05 10:46:43;;;;;;;2.13;0.70;;;;;;;;;;4979332;28;20043;-82
2022/07/05 10:49:14;;;;;;;1.85;1.02;;;;;;;;;;4982477;28;20030;-85
2022/07/05 10:51:40;;;;;;;4.80;1.00;;;;;;;;;;4983610;28;20037;-86
2022/07/05 10:54:06;;;;;;;1.80;0.77;;;;;;;;;;5002550;28;20030;-85
2022/07/05 10:56:31;;;;;;;1.33;0.70;;;;;;;;;;5010857;28;20030;-83
2022/07/05 10:59:09;;;;;;;1.15;0.90;;;;;;;;;;5012514;28;20362;-81
2022/07/05 11:01:37;;;;;;;3.00;0.70;;;;;;;;;;5000978;28;20036;-83
2022/07/05 11:04:02;;;;;;;2.72;0.80;;;;;;;;;;4982676;28;20026;-84
2022/07/05 11:06:33;;;;;;;2.42;0.93;;;;;;;;;;4992678;28;20129;-84
2022/07/05 11:09:08;;;;;;;2.90;0.88;;;;;;;;;;4992132;28;20031;-83
2022/07/05 11:11:42;;;;;;;1.75;0.85;;;;;;;;;;4992765;28;20042;-81
2022/07/05 11:14:23;;;;;;;3.83;1.10;;;;;;;;;;4999118;28;20037;-81
2022/07/05 11:17:08;;;;;;;1.03;0.83;;;;;;;;;;4997248;28;20046;-82
2022/07/05 11:19:34;;;;;;;1.17;0.80;;;;;;;;;;4988116;28;20266;-84
2022/07/05 11:22:05;;;;;;;3.55;0.70;;;;;;;;;;5000641;28;20026;-83
2022/07/05 11:24:32;;;;;;;1.80;0.80;;;;;;;;;;5000558;28;20061;-82
2022/07/05 11:26:59;;;;;;;2.53;0.90;;;;;;;;;;4980768;28;20134;-82
2022/07/05 11:29:40;;;;;;;2.33;0.93;;;;;;;;;;5004997;28;20050;-84
2022/07/05 11:32:07;;;;;;;3.15;0.93;;;;;;;;;;4977800;28;20026;-83
2022/07/05 11:34:36;;;;;;;0.85;0.70;;;;;;;;;;5004767;28;20423;-83
2022/07/05 11:37:34;;;;;;;1.33;0.82;;;;;;;;;;4994752;28;20022;-82
2022/07/05 11:40:05;;;;;;;1.95;0.95;;;;;;;;;;4966559;28;20537;-82
2022/07/05 11:42:31;;;;;;;0.63;0.60;;;;;;;;;;4998918;28;20297;-83
2022/07/05 11:44:57;;;;;;;2.40;0.90;;;;;;;;;;4996459;28;20030;-83
2022/07/05 11:47:23;;;;;;;2.15;0.80;;;;;;;;;;4976825;28;20399;-82
2022/07/05 11:50:00;;;;;;;1.83;0.77;;;;;;;;;;4997234;28;20026;-82
2022/07/05 11:52:27;;;;;;;2.13;0.82;;;;;;;;;;4996417;28;20034;-83
2022/07/05 11:54:53;;;;;;;0.80;0.80;;;;;;;;;;4996603;28;20432;-84
2022/07/05 11:57:19;;;;;;;2.58;0.60;;;;;;;;;;4997256;28;20030;-83
2022/07/05 11:59:45;;;;;;;5.13;0.82;;;;;;;;;;4981344;28;20515;-82
2022/07/05 12:02:11;;;;;;;4.43;1.02;;;;;;;;;;4992255;28;20109;-82
2022/07/05 12:04:36;;;;;;;0.80;0.80;;;;;;;;;;4993363;28;20025;-82
2022/07/05 12:07:02;;;;;;;1.30;1.00;;;;;;;;;;4997785;28;20053;-82
2022/07/05 12:12:42;;;;;;;1.63;0.60;;;;;;;;;;4978871;28;20097;-81
2022/07/05 12:15:08;;;;;;;1.08;0.70;;;;;;;;;;4990763;28;20046;-82
2022/07/05 12:17:34;;;;;;;1.70;0.70;;;;;;;;;;4979661;28;20399;-83
2022/07/05 12:20:00;;;;;;;1.25;1.00;;;;;;;;;;4977765;28;20173;-82
2022/07/05 12:22:52;;;;;;;3.95;1.17;;;;;;;;;;4987219;28;20472;-82
2022/07/05 12:25:23;;;;;;;0.95;0.95;;;;;;;;;;4993535;28;20081;-83
2022/07/05 12:27:50;;;;;;;0.98;0.85;;;;;;;;;;4996320;28;20030;-84
2022/07/05 12:30:17;;;;;;;3.70;0.90;;;;;;;;;;5004943;28;20126;-82
2022/07/05 12:32:57;;;;;;;2.58;1.08;;;;;;;;;;4978178;28;20392;-82
2022/07/05 12:35:38;;;;;;;1.33;0.70;;;;;;;;;;4978733;28;20054;-83
2022/07/05 12:38:08;;;;;;;0.80;0.80;;;;;;;;;;4977935;28;20173;-84
2022/07/05 12:40:36;;;;;;;1.88;0.95;;;;;;;;;;4996614;28;20030;-83
2022/07/05 12:43:12;;;;;;;5.40;1.17;;;;;;;;;;4978651;28;20029;-84
2022/07/05 12:45:43;;;;;;;1.73;0.90;;;;;;;;;;4979326;28;20026;-84
2022/07/05 12:48:10;;;;;;;1.75;0.90;;;;;;;;;;4979238;28;20030;-82
2022/07/05 12:50:54;;;;;;;1.15;0.65;;;;;;;;;;4977702;28;20048;-82
2022/07/05 12:59:09;;;;;;;2.03;0.73;;;;;;;;;;4997463;28;20036;-82
2022/07/05 13:01:39;;;;;;;0.68;0.68;;;;;;;;;;4982867;28;20117;-82
2022/07/05 13:04:08;;;;;;;6.00;1.17;;;;;;;;;;4979907;28;20054;-82
2022/07/05 13:06:54;;;;;;;2.97;0.93;;;;;;;;;;5002553;28;20085;-84
2022/07/05 13:09:34;;;;;;;1.70;1.17;;;;;;;;;;4992366;28;20236;-83
2022/07/05 13:12:05;;;;;;;2.33;1.20;;;;;;;;;;5001476;28;20038;-83
2022/07/05 13:14:30;;;;;;;;;;;;;;;;;;4999598;28;20026;-80
2022/07/05 13:16:56;;;;;;;1.65;0.80;;;;;;;;;;4981970;28;19960;-81
2022/07/05 13:19:21;;;;;;;0.93;0.63;;;;;;;;;;5004355;28;20027;-83
2022/07/05 13:21:47;;;;;;;3.58;0.80;;;;;;;;;;4990545;28;20026;-81
2022/07/05 13:24:13;;;;;;;2.05;1.15;;;;;;;;;;5011446;28;20034;-81
2022/07/05 13:26:38;;;;;;;1.30;0.75;;;;;;;;;;4991619;28;20033;-82
2022/07/05 13:29:04;;;;;;;3.40;1.20;;;;;;;;;;5013549;28;20026;-82
2022/07/05 13:31:30;;;;;;;1.15;0.80;;;;;;;;;;4994538;28;20027;-81
2022/07/05 13:33:56;;;;;;;8.88;1.45;;;;;;;;;;4996723;28;20121;-81
2022/07/05 13:36:22;;;;;;;4.15;0.80;;;;;;;;;;4995363;28;20041;-81
2022/07/05 13:38:47;;;;;;;1.08;0.80;;;;;;;;;;5012646;28;20034;-80
2022/07/05 13:41:13;;;;;;;1.65;0.93;;;;;;;;;;4992663;28;20038;-82
2022/07/05 13:43:40;;;;;;;0.70;0.70;;;;;;;;;;5013242;28;20026;-79
2022/07/05 13:46:06;;;;;;;2.38;1.00;;;;;;;;;;4993965;28;20034;-82
2022/07/05 13:48:31;;;;;;;2.60;0.77;;;;;;;;;;5007883;28;20060;-81
2022/07/05 13:50:57;;;;;;;2.10;1.05;;;;;;;;;;5001513;28;20060;-82
2022/07/05 13:53:22;;;;;;;1.88;1.00;;;;;;;;;;4995192;28;20120;-83
2022/07/05 13:55:48;;;;;;;1.98;1.02;;;;;;;;;;4998468;28;20488;-82
2022/07/05 13:58:13;;;;;;;2.85;1.13;;;;;;;;;;4979176;28;20022;-81
2022/07/05 14:00:38;;;;;;;2.55;0.85;;;;;;;;;;4991887;28;20030;-81
2022/07/05 14:03:04;;;;;;;2.55;1.08;;;;;;;;;;4992331;28;20081;-82
2022/07/05 14:05:29;;;;;;;3.10;1.10;;;;;;;;;;4998309;28;20098;-81
2022/07/05 14:07:55;;;;;;;2.97;1.05;;;;;;;;;;5012517;28;20244;-81
2022/07/05 14:10:20;;;;;;;1.48;0.77;;;;;;;;;;5007759;28;20404;-82
2022/07/05 14:12:46;;;;;;;2.42;0.70;;;;;;;;;;4985426;28;20034;-82
2022/07/05 14:15:12;;;;;;;1.55;1.00;;;;;;;;;;4998827;28;20022;-82
2022/07/05 14:17:38;;;;;;;1.38;0.70;;;;;;;;;;5004779;28;20068;-82
2022/07/05 14:20:05;;;;;;;1.45;0.85;;;;;;;;;;5014755;28;20031;-82
2022/07/05 14:22:30;;;;;;;2.92;1.00;;;;;;;;;;5007257;28;20026;-82
2022/07/05 14:24:55;;;;;;;2.35;1.23;;;;;;;;;;5003220;28;20061;-82
2022/07/05 14:27:21;;;;;;;3.08;1.23;;;;;;;;;;5001162;28;20022;-82
2022/07/05 14:29:46;;;;;;;1.27;0.88;;;;;;;;;;5028131;23;20041;-81
2022/07/05 14:32:12;;;;;;;0.75;0.75;;;;;;;;;;4969788;28;20027;-81
2022/07/05 14:34:48;;;;;;;2.30;1.08;;;;;;;;;;4948207;29;20031;-80
2022/07/05 14:37:14;;;;;;;2.20;0.90;;;;;;;;;;4943357;28;20031;-82
2022/07/05 14:39:42;;;;;;;2.05;1.00;;;;;;;;;;4970243;28;20034;-82
2022/07/05 14:42:08;;;;;;;2.20;0.93;;;;;;;;;;4968185;28;20042;-82
2022/07/05 14:44:34;;;;;;;1.45;0.75;;;;;;;;;;4968683;28;20086;-80
2022/07/05 14:47:00;;;;;;;1.08;0.70;;;;;;;;;;4962932;28;20023;-82
2022/07/05 14:55:49;;;;;;;2.92;1.00;;;;;;;;;;4964297;28;20026;-82
2022/07/05 14:58:17;;;;;;;0.70;0.70;;;;;;;;;;4976909;28;20034;-82
2022/07/05 15:00:45;;;;;;;1.50;0.77;;;;;;;;;;4977447;28;20085;-83
2022/07/05 15:03:43;;;;;;;1.77;0.65;;;;;;;;;;4957489;28;20039;-82
2022/07/05 15:09:21;;;;;;;1.63;1.02;;;;;;;;;;4956773;29;20113;-83
2022/07/05 15:12:04;;;;;;;1.90;1.10;;;;;;;;;;4956241;28;20114;-81
2022/07/05 15:14:49;;;;;;;0.70;0.70;;;;;;;;;;4955561;29;20023;-81
2022/07/05 15:17:28;;;;;;;1.10;0.93;;;;;;;;;;4957644;28;20024;-80
2022/07/05 15:20:14;;;;;;;;;;;;;;;;;;;;;
2022/07/05 15:22:56;;;;;;;1.10;0.80;;;;;;;;;;4937339;29;20174;-81
2022/07/05 15:25:37;;;;;;;;;;;;;;;;;;4961200;28;20027;-81
2022/07/05 15:28:38;;;;;;;2.17;1.10;;;;;;;;;;4977757;28;19914;-81
2022/07/05 15:31:17;;;;;;;5.50;1.02;;;;;;;;;;4967660;28;20047;-81
2022/07/05 15:33:53;;;;;;;3.63;1.45;;;;;;;;;;4937203;29;20490;-83
2022/07/05 15:36:26;;;;;;;1.25;1.15;;;;;;;;;;4939078;29;20027;-82
2022/07/05 15:39:18;;;;;;;1.23;0.93;;;;;;;;;;4936464;29;20062;-82
2022/07/05 15:42:29;;;;;;;1.92;0.77;;;;;;;;;;4935715;29;20035;-80
2022/07/05 15:45:26;;;;;;;2.92;1.30;;;;;;;;;;4949667;29;20042;-80
2022/07/05 16:01:46;;;;;;;;;;;;;;;;;;4957598;28;20421;-81
2022/07/05 16:04:12;;;;;;;2.38;1.00;;;;;;;;;;4940629;29;19910;-85
2022/07/05 16:07:07;;;;;;;2.35;1.23;;;;;;;;;;4941018;29;20517;-82
2022/07/05 16:09:52;;;;;;;1.77;1.00;;;;;;;;;;4956032;28;20031;-82
2022/07/05 16:12:19;;;;;;;1.10;0.80;;;;;;;;;;4958282;29;20031;-82
2022/07/05 16:14:50;;;;;;;1.58;1.20;;;;;;;;;;5005613;23;20053;-83
2022/07/05 16:17:40;;;;;;;1.85;1.10;;;;;;;;;;5000209;28;20031;-83
2022/07/05 16:20:24;;;;;;;0.97;0.80;;;;;;;;;;4983435;28;20034;-82
2022/07/05 16:23:12;;;;;;;1.05;0.85;;;;;;;;;;5012530;28;20023;-81
2022/07/05 16:26:01;;;;;;;;;;;;;;;;;;;;;
2022/07/05 16:28:52;;;;;;;0.80;0.80;;;;;;;;;;4982962;28;20095;-83
2022/07/05 16:31:48;;;;;;;2.60;0.73;;;;;;;;;;4978888;28;20027;-82
2022/07/05 16:36:54;;;;;;;1.15;1.05;;;;;;;;;;4999670;23;20055;-82
2022/07/05 16:39:19;;;;;;;7.18;1.00;;;;;;;;;;4960210;28;20034;-83
2022/07/05 16:42:16;;;;;;;1.75;0.80;;;;;;;;;;4978450;28;20436;-82
2022/07/05 16:45:34;;;;;;;1.27;0.85;;;;;;;;;;4977725;28;20030;-81
2022/07/05 16:47:59;;;;;;;1.70;1.05;;;;;;;;;;4973709;28;20047;-83
2022/07/05 16:50:29;;;;;;;0.93;0.90;;;;;;;;;;4978345;28;20030;-81
2022/07/05 16:52:55;;;;;;;1.30;1.20;;;;;;;;;;4978511;28;20022;-82
2022/07/05 16:58:57;;;;;;;1.33;1.23;;;;;;;;;;4977492;28;20575;-81
2022/07/05 17:01:23;;;;;;;3.05;0.98;;;;;;;;;;4966356;28;20493;-83
2022/07/05 17:03:52;;;;;;;2.83;1.08;;;;;;;;;;4990851;28;20030;-82
2022/07/05 17:06:18;;;;;;;3.78;1.00;;;;;;;;;;4998564;28;20072;-82
2022/07/05 17:08:47;;;;;;;3.13;1.00;;;;;;;;;;4997089;28;20477;-82
2022/07/05 17:11:14;;;;;;;1.05;0.90;;;;;;;;;;4997791;28;20503;-82
2022/07/05 17:13:42;;;;;;;1.38;0.85;;;;;;;;;;4979176;28;20042;-83
2022/07/05 17:16:09;;;;;;;0.63;0.63;;;;;;;;;;4996625;28;20087;-81
2022/07/05 17:18:40;;;;;;;1.00;0.95;;;;;;;;;;4997155;28;20448;-83
2022/07/05 17:21:06;;;;;;;2.03;0.65;;;;;;;;;;4992529;28;20026;-82
2022/07/05 17:23:33;;;;;;;2.35;1.02;;;;;;;;;;4996783;28;20527;-82
2022/07/05 17:25:58;;;;;;;3.58;0.93;;;;;;;;;;4996768;28;20034;-81
2022/07/05 17:28:24;;;;;;;1.40;0.70;;;;;;;;;;4996937;28;20026;-82
2022/07/05 17:30:50;;;;;;;1.55;1.10;;;;;;;;;;4997530;28;20033;-82
2022/07/05 17:33:16;;;;;;;2.45;0.75;;;;;;;;;;4997523;28;20105;-81
2022/07/05 17:35:41;;;;;;;3.42;0.90;;;;;;;;;;4999509;28;20072;-83
2022/07/05 17:38:08;;;;;;;3.05;0.93;;;;;;;;;;4998672;28;20042;-83
2022/07/05 17:40:34;;;;;;;1.05;0.80;;;;;;;;;;4983652;28;20125;-84
2022/07/05 17:42:59;;;;;;;4.30;1.85;;;;;;;;;;5001535;28;20070;-84
2022/07/05 17:45:25;;;;;;;1.25;0.90;;;;;;;;;;5001986;28;20181;-84
2022/07/05 17:47:50;;;;;;;0.77;0.77;;;;;;;;;;5001828;28;20022;-84
2022/07/05 17:50:15;;;;;;;3.10;1.00;;;;;;;;;;5001860;28;20026;-83
2022/07/05 17:52:41;;;;;;;3.78;1.08;;;;;;;;;;5001625;28;20026;-85
2022/07/05 17:55:07;;;;;;;1.25;1.15;;;;;;;;;;5000557;28;20448;-84
2022/07/05 17:57:32;;;;;;;1.20;0.82;;;;;;;;;;4983058;28;20113;-85
2022/07/05 17:59:57;;;;;;;1.08;1.00;;;;;;;;;;5000990;28;20117;-85
2022/07/05 18:03:23;;;;;;;1.13;0.98;;;;;;;;;;5000004;28;20054;-84